sensor_id;sensor_type;location;lat;lon;timestamp;P1;durP1;ratioP1;P2;durP2;ratioP2
19231;SDS011;9750;48.730;10.294;2022-10-26T00:00:51;4.57;;;2.50;;
19231;SDS011;9750;48.730;10.294;2022-10-26T00:03:19;4.73;;;2.73;;
19231;SDS011;9750;48.730;10.294;2022-10-26T00:05:46;4.50;;;3.00;;
19231;SDS011;9750;48.730;10.294;2022-10-26T00:08:13;5.07;;;2.63;;
19231;SDS011;9750;48.730;10.294;2022-10-26T00:10:43;3.57;;;2.70;;
19231;SDS011;9750;48.730;10.294;2022-10-26T00:13:11;7.93;;;3.10;;
19231;SDS011;9750;48.730;10.294;2022-10-26T00:15:39;5.07;;;2.77;;
19231;SDS011;9750;48.730;10.294;2022-10-26T00:18:07;6.47;;;3.10;;
19231;SDS011;9750;48.730;10.294;2022-10-26T00:23:57;5.67;;;3.00;;
19231;SDS011;9750;48.730;10.294;2022-10-26T00:26:26;6.03;;;3.33;;
19231;SDS011;9750;48.730;10.294;2022-10-26T00:28:54;8.43;;;5.00;;
19231;SDS011;9750;48.730;10.294;2022-10-26T00:31:22;6.53;;;4.60;;
19231;SDS011;9750;48.730;10.294;2022-10-26T00:33:51;11.63;;;5.20;;
19231;SDS011;9750;48.730;10.294;2022-10-26T00:36:19;5.23;;;4.43;;
19231;SDS011;9750;48.730;10.294;2022-10-26T00:38:50;9.87;;;5.10;;
19231;SDS011;9750;48.730;10.294;2022-10-26T00:41:19;4.83;;;4.33;;
19231;SDS011;9750;48.730;10.294;2022-10-26T00:43:50;8.77;;;5.00;;
19231;SDS011;9750;48.730;10.294;2022-10-26T00:46:19;7.57;;;4.03;;
19231;SDS011;9750;48.730;10.294;2022-10-26T00:48:50;6.30;;;3.37;;
19231;SDS011;9750;48.730;10.294;2022-10-26T00:51:22;8.90;;;3.97;;
19231;SDS011;9750;48.730;10.294;2022-10-26T00:53:53;7.00;;;4.20;;
19231;SDS011;9750;48.730;10.294;2022-10-26T00:56:21;5.03;;;4.50;;
19231;SDS011;9750;48.730;10.294;2022-10-26T00:58:50;7.90;;;5.90;;
19231;SDS011;9750;48.730;10.294;2022-10-26T01:01:18;7.00;;;5.17;;
19231;SDS011;9750;48.730;10.294;2022-10-26T01:03:46;7.30;;;4.87;;
19231;SDS011;9750;48.730;10.294;2022-10-26T01:06:13;8.33;;;5.50;;
19231;SDS011;9750;48.730;10.294;2022-10-26T01:08:41;7.50;;;4.90;;
19231;SDS011;9750;48.730;10.294;2022-10-26T01:11:09;7.70;;;5.03;;
19231;SDS011;9750;48.730;10.294;2022-10-26T01:13:37;6.93;;;5.57;;
19231;SDS011;9750;48.730;10.294;2022-10-26T01:16:15;6.17;;;5.57;;
19231;SDS011;9750;48.730;10.294;2022-10-26T01:19:00;8.77;;;5.30;;
19231;SDS011;9750;48.730;10.294;2022-10-26T01:21:47;7.27;;;5.00;;
19231;SDS011;9750;48.730;10.294;2022-10-26T01:24:33;7.83;;;4.87;;
19231;SDS011;9750;48.730;10.294;2022-10-26T01:27:15;8.50;;;4.47;;
19231;SDS011;9750;48.730;10.294;2022-10-26T01:29:50;6.23;;;5.07;;
19231;SDS011;9750;48.730;10.294;2022-10-26T01:32:37;10.13;;;4.83;;
19231;SDS011;9750;48.730;10.294;2022-10-26T01:35:10;7.20;;;5.77;;
19231;SDS011;9750;48.730;10.294;2022-10-26T01:37:43;7.30;;;5.83;;
19231;SDS011;9750;48.730;10.294;2022-10-26T01:43:18;7.17;;;4.83;;
19231;SDS011;9750;48.730;10.294;2022-10-26T01:45:48;7.13;;;5.13;;
19231;SDS011;9750;48.730;10.294;2022-10-26T01:48:18;8.93;;;5.27;;
19231;SDS011;9750;48.730;10.294;2022-10-26T01:50:50;7.07;;;5.53;;
19231;SDS011;9750;48.730;10.294;2022-10-26T01:53:20;6.37;;;5.60;;
19231;SDS011;9750;48.730;10.294;2022-10-26T01:55:48;8.50;;;5.60;;
19231;SDS011;9750;48.730;10.294;2022-10-26T01:58:22;8.30;;;6.03;;
19231;SDS011;9750;48.730;10.294;2022-10-26T02:01:13;7.03;;;5.50;;
19231;SDS011;9750;48.730;10.294;2022-10-26T02:03:52;7.27;;;5.53;;
19231;SDS011;9750;48.730;10.294;2022-10-26T02:06:30;7.40;;;5.10;;
19231;SDS011;9750;48.730;10.294;2022-10-26T02:09:07;7.80;;;5.40;;
19231;SDS011;9750;48.730;10.294;2022-10-26T02:11:44;8.53;;;5.87;;
19231;SDS011;9750;48.730;10.294;2022-10-26T02:14:17;10.80;;;5.93;;
19231;SDS011;9750;48.730;10.294;2022-10-26T02:16:51;8.70;;;5.17;;
19231;SDS011;9750;48.730;10.294;2022-10-26T02:19:28;6.80;;;4.70;;
19231;SDS011;9750;48.730;10.294;2022-10-26T02:22:05;7.57;;;4.43;;
19231;SDS011;9750;48.730;10.294;2022-10-26T02:24:39;7.60;;;4.47;;
19231;SDS011;9750;48.730;10.294;2022-10-26T02:27:10;5.67;;;4.37;;
19231;SDS011;9750;48.730;10.294;2022-10-26T02:29:42;5.13;;;4.37;;
19231;SDS011;9750;48.730;10.294;2022-10-26T02:32:10;5.70;;;4.20;;
19231;SDS011;9750;48.730;10.294;2022-10-26T02:34:40;5.93;;;4.30;;
19231;SDS011;9750;48.730;10.294;2022-10-26T02:37:11;8.47;;;4.30;;
19231;SDS011;9750;48.730;10.294;2022-10-26T02:39:41;6.20;;;5.07;;
19231;SDS011;9750;48.730;10.294;2022-10-26T02:42:11;8.03;;;4.70;;
19231;SDS011;9750;48.730;10.294;2022-10-26T02:44:41;6.73;;;4.50;;
19231;SDS011;9750;48.730;10.294;2022-10-26T02:47:13;6.13;;;4.73;;
19231;SDS011;9750;48.730;10.294;2022-10-26T02:49:43;7.73;;;4.60;;
19231;SDS011;9750;48.730;10.294;2022-10-26T02:52:11;8.30;;;6.00;;
19231;SDS011;9750;48.730;10.294;2022-10-26T02:54:46;8.77;;;4.80;;
19231;SDS011;9750;48.730;10.294;2022-10-26T02:57:18;6.83;;;5.70;;
19231;SDS011;9750;48.730;10.294;2022-10-26T03:02:32;9.23;;;6.00;;
19231;SDS011;9750;48.730;10.294;2022-10-26T03:05:07;8.30;;;5.33;;
19231;SDS011;9750;48.730;10.294;2022-10-26T03:07:39;10.63;;;5.63;;
19231;SDS011;9750;48.730;10.294;2022-10-26T03:10:07;8.10;;;5.87;;
19231;SDS011;9750;48.730;10.294;2022-10-26T03:12:35;8.13;;;6.53;;
19231;SDS011;9750;48.730;10.294;2022-10-26T03:15:02;7.07;;;6.40;;
19231;SDS011;9750;48.730;10.294;2022-10-26T03:17:30;8.07;;;5.33;;
19231;SDS011;9750;48.730;10.294;2022-10-26T03:19:57;9.07;;;5.23;;
19231;SDS011;9750;48.730;10.294;2022-10-26T03:22:26;8.57;;;5.67;;
19231;SDS011;9750;48.730;10.294;2022-10-26T03:24:53;5.80;;;5.23;;
19231;SDS011;9750;48.730;10.294;2022-10-26T03:27:20;7.10;;;5.27;;
19231;SDS011;9750;48.730;10.294;2022-10-26T03:29:57;8.00;;;5.03;;
19231;SDS011;9750;48.730;10.294;2022-10-26T03:32:24;7.37;;;4.83;;
19231;SDS011;9750;48.730;10.294;2022-10-26T03:34:51;7.70;;;5.20;;
19231;SDS011;9750;48.730;10.294;2022-10-26T03:37:19;8.27;;;5.60;;
19231;SDS011;9750;48.730;10.294;2022-10-26T03:42:55;7.33;;;4.83;;
19231;SDS011;9750;48.730;10.294;2022-10-26T03:45:23;9.73;;;5.87;;
19231;SDS011;9750;48.730;10.294;2022-10-26T03:47:50;7.40;;;6.00;;
19231;SDS011;9750;48.730;10.294;2022-10-26T03:50:24;9.13;;;5.80;;
19231;SDS011;9750;48.730;10.294;2022-10-26T03:52:51;7.07;;;4.87;;
19231;SDS011;9750;48.730;10.294;2022-10-26T03:55:19;7.83;;;5.10;;
19231;SDS011;9750;48.730;10.294;2022-10-26T03:57:46;8.17;;;5.30;;
19231;SDS011;9750;48.730;10.294;2022-10-26T04:00:15;10.47;;;6.20;;
19231;SDS011;9750;48.730;10.294;2022-10-26T04:02:43;9.00;;;5.30;;
19231;SDS011;9750;48.730;10.294;2022-10-26T04:05:12;6.47;;;5.03;;
19231;SDS011;9750;48.730;10.294;2022-10-26T04:07:40;6.87;;;5.83;;
19231;SDS011;9750;48.730;10.294;2022-10-26T04:10:08;7.90;;;5.53;;
19231;SDS011;9750;48.730;10.294;2022-10-26T04:12:35;6.43;;;5.67;;
19231;SDS011;9750;48.730;10.294;2022-10-26T04:15:03;10.00;;;5.33;;
19231;SDS011;9750;48.730;10.294;2022-10-26T04:17:33;11.00;;;5.83;;
19231;SDS011;9750;48.730;10.294;2022-10-26T04:20:00;7.37;;;5.70;;
19231;SDS011;9750;48.730;10.294;2022-10-26T04:22:28;9.33;;;5.57;;
19231;SDS011;9750;48.730;10.294;2022-10-26T04:24:55;11.47;;;6.20;;
19231;SDS011;9750;48.730;10.294;2022-10-26T04:27:22;6.53;;;5.10;;
19231;SDS011;9750;48.730;10.294;2022-10-26T04:29:50;8.57;;;5.90;;
19231;SDS011;9750;48.730;10.294;2022-10-26T04:32:17;8.20;;;5.63;;
19231;SDS011;9750;48.730;10.294;2022-10-26T04:34:46;7.53;;;5.23;;
19231;SDS011;9750;48.730;10.294;2022-10-26T04:37:13;8.13;;;5.43;;
19231;SDS011;9750;48.730;10.294;2022-10-26T04:39:40;7.77;;;5.83;;
19231;SDS011;9750;48.730;10.294;2022-10-26T04:42:08;7.63;;;5.53;;
19231;SDS011;9750;48.730;10.294;2022-10-26T04:44:35;8.27;;;5.53;;
19231;SDS011;9750;48.730;10.294;2022-10-26T04:47:02;8.40;;;5.40;;
19231;SDS011;9750;48.730;10.294;2022-10-26T04:49:29;6.17;;;5.33;;
19231;SDS011;9750;48.730;10.294;2022-10-26T04:51:58;9.67;;;6.07;;
19231;SDS011;9750;48.730;10.294;2022-10-26T04:54:26;6.13;;;5.53;;
19231;SDS011;9750;48.730;10.294;2022-10-26T04:56:53;10.93;;;6.33;;
19231;SDS011;9750;48.730;10.294;2022-10-26T04:59:20;10.17;;;5.80;;
19231;SDS011;9750;48.730;10.294;2022-10-26T05:01:48;7.13;;;6.10;;
19231;SDS011;9750;48.730;10.294;2022-10-26T05:04:15;8.47;;;6.87;;
19231;SDS011;9750;48.730;10.294;2022-10-26T05:06:42;9.10;;;6.60;;
19231;SDS011;9750;48.730;10.294;2022-10-26T05:09:11;9.70;;;6.33;;
19231;SDS011;9750;48.730;10.294;2022-10-26T05:11:38;7.57;;;6.60;;
19231;SDS011;9750;48.730;10.294;2022-10-26T05:14:06;9.57;;;6.77;;
19231;SDS011;9750;48.730;10.294;2022-10-26T05:16:33;7.77;;;6.20;;
19231;SDS011;9750;48.730;10.294;2022-10-26T05:22:06;10.00;;;7.90;;
19231;SDS011;9750;48.730;10.294;2022-10-26T05:24:35;10.57;;;7.67;;
19231;SDS011;9750;48.730;10.294;2022-10-26T05:27:02;10.13;;;7.83;;
19231;SDS011;9750;48.730;10.294;2022-10-26T05:29:30;9.30;;;8.30;;
19231;SDS011;9750;48.730;10.294;2022-10-26T05:31:57;9.63;;;8.33;;
19231;SDS011;9750;48.730;10.294;2022-10-26T05:34:24;10.90;;;9.33;;
19231;SDS011;9750;48.730;10.294;2022-10-26T05:36:52;11.50;;;8.23;;
19231;SDS011;9750;48.730;10.294;2022-10-26T05:39:19;9.43;;;8.43;;
19231;SDS011;9750;48.730;10.294;2022-10-26T05:41:48;10.80;;;9.20;;
19231;SDS011;9750;48.730;10.294;2022-10-26T05:44:16;10.67;;;9.07;;
19231;SDS011;9750;48.730;10.294;2022-10-26T05:46:45;12.27;;;10.23;;
19231;SDS011;9750;48.730;10.294;2022-10-26T05:49:12;10.50;;;9.13;;
19231;SDS011;9750;48.730;10.294;2022-10-26T05:51:40;9.63;;;8.63;;
19231;SDS011;9750;48.730;10.294;2022-10-26T05:54:07;11.40;;;9.57;;
19231;SDS011;9750;48.730;10.294;2022-10-26T05:56:35;10.90;;;9.00;;
19231;SDS011;9750;48.730;10.294;2022-10-26T05:59:08;10.70;;;9.63;;
19231;SDS011;9750;48.730;10.294;2022-10-26T06:01:41;11.20;;;10.00;;
19231;SDS011;9750;48.730;10.294;2022-10-26T06:04:20;12.00;;;10.60;;
19231;SDS011;9750;48.730;10.294;2022-10-26T06:06:55;12.90;;;10.47;;
19231;SDS011;9750;48.730;10.294;2022-10-26T06:09:24;12.87;;;9.47;;
19231;SDS011;9750;48.730;10.294;2022-10-26T06:11:52;11.93;;;10.07;;
19231;SDS011;9750;48.730;10.294;2022-10-26T06:14:22;9.90;;;8.90;;
19231;SDS011;9750;48.730;10.294;2022-10-26T06:16:54;10.70;;;9.57;;
19231;SDS011;9750;48.730;10.294;2022-10-26T06:19:36;13.43;;;11.20;;
19231;SDS011;9750;48.730;10.294;2022-10-26T06:22:16;11.97;;;9.87;;
19231;SDS011;9750;48.730;10.294;2022-10-26T06:24:52;14.10;;;9.83;;
19231;SDS011;9750;48.730;10.294;2022-10-26T06:27:32;11.63;;;9.67;;
19231;SDS011;9750;48.730;10.294;2022-10-26T06:30:09;12.97;;;10.70;;
19231;SDS011;9750;48.730;10.294;2022-10-26T06:32:37;12.13;;;9.57;;
19231;SDS011;9750;48.730;10.294;2022-10-26T06:35:12;11.33;;;10.27;;
19231;SDS011;9750;48.730;10.294;2022-10-26T06:37:46;13.43;;;11.97;;
19231;SDS011;9750;48.730;10.294;2022-10-26T06:40:14;12.77;;;11.43;;
19231;SDS011;9750;48.730;10.294;2022-10-26T06:42:43;13.40;;;11.97;;
19231;SDS011;9750;48.730;10.294;2022-10-26T06:45:13;15.20;;;13.47;;
19231;SDS011;9750;48.730;10.294;2022-10-26T06:47:42;15.80;;;14.23;;
19231;SDS011;9750;48.730;10.294;2022-10-26T06:50:18;14.77;;;13.23;;
19231;SDS011;9750;48.730;10.294;2022-10-26T06:52:58;16.13;;;13.67;;
19231;SDS011;9750;48.730;10.294;2022-10-26T06:55:35;16.47;;;14.10;;
19231;SDS011;9750;48.730;10.294;2022-10-26T06:58:07;18.90;;;15.03;;
19231;SDS011;9750;48.730;10.294;2022-10-26T07:00:38;18.50;;;14.20;;
19231;SDS011;9750;48.730;10.294;2022-10-26T07:03:06;15.87;;;13.40;;
19231;SDS011;9750;48.730;10.294;2022-10-26T07:05:34;18.50;;;14.97;;
19231;SDS011;9750;48.730;10.294;2022-10-26T07:08:01;16.77;;;14.13;;
19231;SDS011;9750;48.730;10.294;2022-10-26T07:10:45;15.70;;;13.63;;
19231;SDS011;9750;48.730;10.294;2022-10-26T07:13:12;15.60;;;13.33;;
19231;SDS011;9750;48.730;10.294;2022-10-26T07:15:41;18.23;;;13.93;;
19231;SDS011;9750;48.730;10.294;2022-10-26T07:18:09;14.10;;;12.63;;
19231;SDS011;9750;48.730;10.294;2022-10-26T07:20:37;15.47;;;11.97;;
19231;SDS011;9750;48.730;10.294;2022-10-26T07:23:05;14.33;;;11.97;;
19231;SDS011;9750;48.730;10.294;2022-10-26T07:25:35;14.67;;;12.03;;
19231;SDS011;9750;48.730;10.294;2022-10-26T07:28:04;14.27;;;11.37;;
19231;SDS011;9750;48.730;10.294;2022-10-26T07:30:34;15.53;;;11.00;;
19231;SDS011;9750;48.730;10.294;2022-10-26T07:33:04;13.43;;;10.13;;
19231;SDS011;9750;48.730;10.294;2022-10-26T07:35:32;12.67;;;9.63;;
19231;SDS011;9750;48.730;10.294;2022-10-26T07:38:00;13.47;;;9.27;;
19231;SDS011;9750;48.730;10.294;2022-10-26T07:40:29;11.00;;;8.40;;
19231;SDS011;9750;48.730;10.294;2022-10-26T07:42:57;10.77;;;8.70;;
19231;SDS011;9750;48.730;10.294;2022-10-26T07:45:26;9.83;;;8.13;;
19231;SDS011;9750;48.730;10.294;2022-10-26T07:47:54;10.13;;;7.70;;
19231;SDS011;9750;48.730;10.294;2022-10-26T07:50:23;10.30;;;8.07;;
19231;SDS011;9750;48.730;10.294;2022-10-26T07:52:50;10.00;;;8.57;;
19231;SDS011;9750;48.730;10.294;2022-10-26T07:55:18;9.43;;;7.10;;
19231;SDS011;9750;48.730;10.294;2022-10-26T07:57:46;11.33;;;7.33;;
19231;SDS011;9750;48.730;10.294;2022-10-26T08:00:13;11.63;;;7.57;;
19231;SDS011;9750;48.730;10.294;2022-10-26T08:02:41;9.37;;;7.47;;
19231;SDS011;9750;48.730;10.294;2022-10-26T08:05:08;10.17;;;7.77;;
19231;SDS011;9750;48.730;10.294;2022-10-26T08:07:40;10.93;;;7.10;;
19231;SDS011;9750;48.730;10.294;2022-10-26T08:10:09;8.47;;;7.03;;
19231;SDS011;9750;48.730;10.294;2022-10-26T08:12:37;11.07;;;7.07;;
19231;SDS011;9750;48.730;10.294;2022-10-26T08:15:05;12.80;;;6.47;;
19231;SDS011;9750;48.730;10.294;2022-10-26T08:17:33;12.27;;;8.00;;
19231;SDS011;9750;48.730;10.294;2022-10-26T08:20:00;12.53;;;6.60;;
19231;SDS011;9750;48.730;10.294;2022-10-26T08:22:28;8.77;;;6.30;;
19231;SDS011;9750;48.730;10.294;2022-10-26T08:24:57;7.83;;;5.87;;
19231;SDS011;9750;48.730;10.294;2022-10-26T08:27:25;8.87;;;6.37;;
19231;SDS011;9750;48.730;10.294;2022-10-26T08:29:53;9.33;;;6.30;;
19231;SDS011;9750;48.730;10.294;2022-10-26T08:32:20;10.73;;;5.90;;
19231;SDS011;9750;48.730;10.294;2022-10-26T08:34:47;7.93;;;6.07;;
19231;SDS011;9750;48.730;10.294;2022-10-26T08:37:15;8.23;;;5.53;;
19231;SDS011;9750;48.730;10.294;2022-10-26T08:42:27;6.23;;;4.57;;
19231;SDS011;9750;48.730;10.294;2022-10-26T08:45:00;6.30;;;5.13;;
19231;SDS011;9750;48.730;10.294;2022-10-26T08:47:31;7.50;;;5.90;;
19231;SDS011;9750;48.730;10.294;2022-10-26T08:50:03;5.50;;;4.77;;
19231;SDS011;9750;48.730;10.294;2022-10-26T08:52:37;7.27;;;4.70;;
19231;SDS011;9750;48.730;10.294;2022-10-26T08:55:13;8.27;;;5.37;;
19231;SDS011;9750;48.730;10.294;2022-10-26T08:57:43;8.20;;;5.20;;
19231;SDS011;9750;48.730;10.294;2022-10-26T09:00:14;7.73;;;4.83;;
19231;SDS011;9750;48.730;10.294;2022-10-26T09:02:44;9.13;;;5.17;;
19231;SDS011;9750;48.730;10.294;2022-10-26T09:05:16;5.03;;;4.47;;
19231;SDS011;9750;48.730;10.294;2022-10-26T09:07:49;9.63;;;4.83;;
19231;SDS011;9750;48.730;10.294;2022-10-26T09:10:26;4.93;;;4.33;;
19231;SDS011;9750;48.730;10.294;2022-10-26T09:13:04;7.40;;;4.40;;
19231;SDS011;9750;48.730;10.294;2022-10-26T09:15:41;10.03;;;4.80;;
19231;SDS011;9750;48.730;10.294;2022-10-26T09:18:22;8.03;;;4.27;;
19231;SDS011;9750;48.730;10.294;2022-10-26T09:21:04;6.13;;;4.20;;
19231;SDS011;9750;48.730;10.294;2022-10-26T09:26:36;4.97;;;3.90;;
19231;SDS011;9750;48.730;10.294;2022-10-26T09:29:10;7.80;;;4.20;;
19231;SDS011;9750;48.730;10.294;2022-10-26T09:31:39;7.63;;;3.80;;
19231;SDS011;9750;48.730;10.294;2022-10-26T09:34:11;6.73;;;4.50;;
19231;SDS011;9750;48.730;10.294;2022-10-26T09:36:44;6.27;;;3.90;;
19231;SDS011;9750;48.730;10.294;2022-10-26T09:39:13;6.40;;;4.03;;
19231;SDS011;9750;48.730;10.294;2022-10-26T09:41:49;10.43;;;4.70;;
19231;SDS011;9750;48.730;10.294;2022-10-26T09:44:23;6.67;;;4.53;;
19231;SDS011;9750;48.730;10.294;2022-10-26T09:46:55;7.40;;;4.57;;
19231;SDS011;9750;48.730;10.294;2022-10-26T09:49:27;7.67;;;4.90;;
19231;SDS011;9750;48.730;10.294;2022-10-26T09:52:00;11.33;;;5.10;;
19231;SDS011;9750;48.730;10.294;2022-10-26T09:54:28;7.20;;;5.00;;
19231;SDS011;9750;48.730;10.294;2022-10-26T09:56:57;6.03;;;4.80;;
19231;SDS011;9750;48.730;10.294;2022-10-26T09:59:26;10.83;;;5.63;;
19231;SDS011;9750;48.730;10.294;2022-10-26T10:01:57;7.57;;;4.87;;
19231;SDS011;9750;48.730;10.294;2022-10-26T10:04:25;9.83;;;4.47;;
19231;SDS011;9750;48.730;10.294;2022-10-26T10:09:39;8.67;;;4.93;;
19231;SDS011;9750;48.730;10.294;2022-10-26T10:12:15;6.70;;;4.90;;
19231;SDS011;9750;48.730;10.294;2022-10-26T10:14:54;8.70;;;4.87;;
19231;SDS011;9750;48.730;10.294;2022-10-26T10:17:22;7.80;;;5.83;;
19231;SDS011;9750;48.730;10.294;2022-10-26T10:22:32;5.97;;;4.43;;
19231;SDS011;9750;48.730;10.294;2022-10-26T10:25:00;8.93;;;4.97;;
19231;SDS011;9750;48.730;10.294;2022-10-26T10:27:32;5.80;;;4.40;;
19231;SDS011;9750;48.730;10.294;2022-10-26T10:30:12;8.23;;;4.43;;
19231;SDS011;9750;48.730;10.294;2022-10-26T10:32:48;8.30;;;4.60;;
19231;SDS011;9750;48.730;10.294;2022-10-26T10:35:30;7.63;;;4.70;;
19231;SDS011;9750;48.730;10.294;2022-10-26T10:37:58;7.37;;;4.47;;
19231;SDS011;9750;48.730;10.294;2022-10-26T10:43:20;7.93;;;4.40;;
19231;SDS011;9750;48.730;10.294;2022-10-26T10:45:48;5.83;;;3.97;;
19231;SDS011;9750;48.730;10.294;2022-10-26T10:48:19;8.97;;;4.40;;
19231;SDS011;9750;48.730;10.294;2022-10-26T10:50:51;7.67;;;4.80;;
19231;SDS011;9750;48.730;10.294;2022-10-26T10:53:20;8.07;;;4.30;;
19231;SDS011;9750;48.730;10.294;2022-10-26T10:55:58;6.70;;;3.50;;
19231;SDS011;9750;48.730;10.294;2022-10-26T10:58:36;7.70;;;3.67;;
19231;SDS011;9750;48.730;10.294;2022-10-26T11:01:11;6.30;;;4.17;;
19231;SDS011;9750;48.730;10.294;2022-10-26T11:03:54;7.33;;;3.87;;
19231;SDS011;9750;48.730;10.294;2022-10-26T11:06:37;8.17;;;4.50;;
19231;SDS011;9750;48.730;10.294;2022-10-26T11:09:06;6.80;;;3.90;;
19231;SDS011;9750;48.730;10.294;2022-10-26T11:11:38;6.33;;;3.63;;
19231;SDS011;9750;48.730;10.294;2022-10-26T11:14:10;7.57;;;3.40;;
19231;SDS011;9750;48.730;10.294;2022-10-26T11:16:42;6.20;;;3.17;;
19231;SDS011;9750;48.730;10.294;2022-10-26T11:19:19;4.93;;;2.90;;
19231;SDS011;9750;48.730;10.294;2022-10-26T11:21:52;5.43;;;3.30;;
19231;SDS011;9750;48.730;10.294;2022-10-26T11:24:22;6.73;;;3.23;;
19231;SDS011;9750;48.730;10.294;2022-10-26T11:26:53;4.67;;;3.20;;
19231;SDS011;9750;48.730;10.294;2022-10-26T11:32:04;6.20;;;3.40;;
19231;SDS011;9750;48.730;10.294;2022-10-26T11:34:40;8.30;;;3.40;;
19231;SDS011;9750;48.730;10.294;2022-10-26T11:37:14;4.60;;;2.93;;
19231;SDS011;9750;48.730;10.294;2022-10-26T11:39:51;7.60;;;2.90;;
19231;SDS011;9750;48.730;10.294;2022-10-26T11:42:28;6.57;;;2.73;;
19231;SDS011;9750;48.730;10.294;2022-10-26T11:45:07;4.30;;;2.90;;
19231;SDS011;9750;48.730;10.294;2022-10-26T11:47:41;7.77;;;2.73;;
19231;SDS011;9750;48.730;10.294;2022-10-26T11:50:14;6.37;;;2.70;;
19231;SDS011;9750;48.730;10.294;2022-10-26T11:52:46;6.70;;;2.77;;
19231;SDS011;9750;48.730;10.294;2022-10-26T11:55:16;4.80;;;2.60;;
19231;SDS011;9750;48.730;10.294;2022-10-26T11:57:45;6.40;;;2.83;;
19231;SDS011;9750;48.730;10.294;2022-10-26T12:00:15;7.47;;;3.07;;
19231;SDS011;9750;48.730;10.294;2022-10-26T12:02:45;6.57;;;2.90;;
19231;SDS011;9750;48.730;10.294;2022-10-26T12:05:18;6.93;;;2.57;;
19231;SDS011;9750;48.730;10.294;2022-10-26T12:07:49;7.90;;;2.83;;
19231;SDS011;9750;48.730;10.294;2022-10-26T12:10:22;5.60;;;2.80;;
19231;SDS011;9750;48.730;10.294;2022-10-26T12:12:54;4.63;;;2.63;;
19231;SDS011;9750;48.730;10.294;2022-10-26T12:15:29;6.13;;;2.60;;
19231;SDS011;9750;48.730;10.294;2022-10-26T12:18:04;5.90;;;2.43;;
19231;SDS011;9750;48.730;10.294;2022-10-26T12:20:49;5.87;;;2.90;;
19231;SDS011;9750;48.730;10.294;2022-10-26T12:23:20;5.43;;;2.50;;
19231;SDS011;9750;48.730;10.294;2022-10-26T12:25:48;7.93;;;3.03;;
19231;SDS011;9750;48.730;10.294;2022-10-26T12:34:10;4.87;;;3.00;;
19231;SDS011;9750;48.730;10.294;2022-10-26T12:36:48;5.10;;;2.63;;
19231;SDS011;9750;48.730;10.294;2022-10-26T12:42:40;5.93;;;2.63;;
19231;SDS011;9750;48.730;10.294;2022-10-26T12:45:14;5.57;;;2.93;;
19231;SDS011;9750;48.730;10.294;2022-10-26T12:50:49;7.53;;;2.90;;
19231;SDS011;9750;48.730;10.294;2022-10-26T12:53:16;4.93;;;2.50;;
19231;SDS011;9750;48.730;10.294;2022-10-26T12:55:59;6.13;;;3.07;;
19231;SDS011;9750;48.730;10.294;2022-10-26T13:07:59;6.37;;;2.70;;
19231;SDS011;9750;48.730;10.294;2022-10-26T13:10:28;6.03;;;2.30;;
19231;SDS011;9750;48.730;10.294;2022-10-26T13:12:56;8.10;;;2.90;;
19231;SDS011;9750;48.730;10.294;2022-10-26T13:15:26;6.10;;;2.80;;
19231;SDS011;9750;48.730;10.294;2022-10-26T13:17:56;7.03;;;2.90;;
19231;SDS011;9750;48.730;10.294;2022-10-26T13:20:34;7.53;;;2.77;;
19231;SDS011;9750;48.730;10.294;2022-10-26T13:23:13;4.97;;;2.67;;
19231;SDS011;9750;48.730;10.294;2022-10-26T13:25:53;7.70;;;3.03;;
19231;SDS011;9750;48.730;10.294;2022-10-26T13:28:30;5.43;;;2.87;;
19231;SDS011;9750;48.730;10.294;2022-10-26T13:30:59;6.13;;;2.60;;
19231;SDS011;9750;48.730;10.294;2022-10-26T13:33:28;6.13;;;2.63;;
19231;SDS011;9750;48.730;10.294;2022-10-26T13:36:05;3.23;;;2.43;;
19231;SDS011;9750;48.730;10.294;2022-10-26T13:38:42;6.53;;;3.07;;
19231;SDS011;9750;48.730;10.294;2022-10-26T13:41:15;6.53;;;2.77;;
19231;SDS011;9750;48.730;10.294;2022-10-26T13:43:53;6.50;;;2.67;;
19231;SDS011;9750;48.730;10.294;2022-10-26T13:46:26;4.57;;;2.70;;
19231;SDS011;9750;48.730;10.294;2022-10-26T13:48:57;8.43;;;2.80;;
19231;SDS011;9750;48.730;10.294;2022-10-26T13:51:36;7.73;;;2.73;;
19231;SDS011;9750;48.730;10.294;2022-10-26T13:54:13;6.63;;;2.77;;
19231;SDS011;9750;48.730;10.294;2022-10-26T13:56:49;7.17;;;3.07;;
19231;SDS011;9750;48.730;10.294;2022-10-26T13:59:24;5.33;;;2.57;;
19231;SDS011;9750;48.730;10.294;2022-10-26T14:02:07;7.30;;;2.80;;
19231;SDS011;9750;48.730;10.294;2022-10-26T14:04:42;6.50;;;3.33;;
19231;SDS011;9750;48.730;10.294;2022-10-26T14:07:15;8.43;;;2.90;;
19231;SDS011;9750;48.730;10.294;2022-10-26T14:12:52;8.87;;;3.10;;
19231;SDS011;9750;48.730;10.294;2022-10-26T14:15:21;8.03;;;2.77;;
19231;SDS011;9750;48.730;10.294;2022-10-26T14:17:51;8.37;;;3.13;;
19231;SDS011;9750;48.730;10.294;2022-10-26T14:20:20;5.83;;;2.37;;
19231;SDS011;9750;48.730;10.294;2022-10-26T14:22:50;5.83;;;2.90;;
19231;SDS011;9750;48.730;10.294;2022-10-26T14:25:19;9.20;;;3.30;;
19231;SDS011;9750;48.730;10.294;2022-10-26T14:27:49;8.87;;;3.37;;
19231;SDS011;9750;48.730;10.294;2022-10-26T14:30:20;8.07;;;2.97;;
19231;SDS011;9750;48.730;10.294;2022-10-26T14:32:49;8.47;;;2.87;;
19231;SDS011;9750;48.730;10.294;2022-10-26T14:35:17;9.03;;;3.07;;
19231;SDS011;9750;48.730;10.294;2022-10-26T14:37:48;6.97;;;2.60;;
19231;SDS011;9750;48.730;10.294;2022-10-26T14:40:26;6.57;;;2.83;;
19231;SDS011;9750;48.730;10.294;2022-10-26T14:42:56;8.63;;;2.73;;
19231;SDS011;9750;48.730;10.294;2022-10-26T14:45:27;4.80;;;2.50;;
19231;SDS011;9750;48.730;10.294;2022-10-26T14:47:56;11.23;;;3.00;;
19231;SDS011;9750;48.730;10.294;2022-10-26T14:53:33;8.53;;;3.00;;
19231;SDS011;9750;48.730;10.294;2022-10-26T14:56:03;4.70;;;2.90;;
19231;SDS011;9750;48.730;10.294;2022-10-26T14:58:31;4.67;;;2.73;;
19231;SDS011;9750;48.730;10.294;2022-10-26T15:01:16;7.13;;;2.70;;
19231;SDS011;9750;48.730;10.294;2022-10-26T15:03:51;7.63;;;3.23;;
19231;SDS011;9750;48.730;10.294;2022-10-26T15:06:21;6.03;;;2.60;;
19231;SDS011;9750;48.730;10.294;2022-10-26T15:08:56;10.80;;;2.70;;
19231;SDS011;9750;48.730;10.294;2022-10-26T15:11:24;6.20;;;2.70;;
19231;SDS011;9750;48.730;10.294;2022-10-26T15:13:52;7.13;;;2.87;;
19231;SDS011;9750;48.730;10.294;2022-10-26T15:16:21;6.83;;;2.87;;
19231;SDS011;9750;48.730;10.294;2022-10-26T15:18:51;10.43;;;3.47;;
19231;SDS011;9750;48.730;10.294;2022-10-26T15:21:22;8.17;;;2.80;;
19231;SDS011;9750;48.730;10.294;2022-10-26T15:23:50;7.87;;;3.37;;
19231;SDS011;9750;48.730;10.294;2022-10-26T15:26:20;10.00;;;3.17;;
19231;SDS011;9750;48.730;10.294;2022-10-26T15:28:48;8.00;;;3.13;;
19231;SDS011;9750;48.730;10.294;2022-10-26T15:31:29;7.90;;;3.03;;
19231;SDS011;9750;48.730;10.294;2022-10-26T15:34:14;10.57;;;3.73;;
19231;SDS011;9750;48.730;10.294;2022-10-26T15:36:41;5.67;;;3.00;;
19231;SDS011;9750;48.730;10.294;2022-10-26T15:39:08;6.73;;;3.20;;
19231;SDS011;9750;48.730;10.294;2022-10-26T15:41:37;6.27;;;3.00;;
19231;SDS011;9750;48.730;10.294;2022-10-26T15:44:13;6.17;;;2.90;;
19231;SDS011;9750;48.730;10.294;2022-10-26T15:46:42;7.53;;;2.93;;
19231;SDS011;9750;48.730;10.294;2022-10-26T15:49:13;13.27;;;3.80;;
19231;SDS011;9750;48.730;10.294;2022-10-26T15:51:43;7.00;;;2.77;;
19231;SDS011;9750;48.730;10.294;2022-10-26T15:54:11;11.13;;;3.53;;
19231;SDS011;9750;48.730;10.294;2022-10-26T15:56:40;10.27;;;3.37;;
19231;SDS011;9750;48.730;10.294;2022-10-26T15:59:12;9.73;;;3.40;;
19231;SDS011;9750;48.730;10.294;2022-10-26T16:01:42;13.20;;;3.73;;
19231;SDS011;9750;48.730;10.294;2022-10-26T16:04:09;13.73;;;3.43;;
19231;SDS011;9750;48.730;10.294;2022-10-26T16:06:37;19.77;;;4.00;;